Time;durP1;ratioP1;P1;durP2;ratioP2;P2;SDS_P1;SDS_P2;PMS_P1;PMS_P2;Temp;Humidity;BMP_temperature;BMP_pressure;BME280_temperature;BME280_humidity;BME280_pressure;Samples;Min_cycle;Max_cycle;Signal;HPM_P1;HPM_P2
2022/04/21 00:01:36;;;;;;;0.40;0.40;;;6.50;99.90;;;;;;5044907;28;20497;-72
2022/04/21 00:04:01;;;;;;;0.90;0.90;;;6.50;99.90;;;;;;5047046;28;20554;-72
2022/04/21 00:06:28;;;;;;;1.10;1.02;;;6.50;99.90;;;;;;5045916;28;20119;-72
2022/04/21 00:08:53;;;;;;;1.08;1.00;;;6.50;99.90;;;;;;5045778;28;20049;-72
2022/04/21 00:11:19;;;;;;;0.43;0.43;;;6.40;99.90;;;;;;5045498;28;20039;-72
2022/04/21 00:13:45;;;;;;;0.77;0.77;;;6.40;99.90;;;;;;5047205;28;20079;-72
2022/04/21 00:16:10;;;;;;;1.35;1.23;;;6.30;99.90;;;;;;5047152;28;20081;-72
2022/04/21 00:18:36;;;;;;;0.88;0.88;;;6.30;99.90;;;;;;5028825;28;20100;-72
2022/04/21 00:21:02;;;;;;;0.40;0.40;;;6.30;99.90;;;;;;5043818;28;20040;-72
2022/04/21 00:23:28;;;;;;;0.30;0.30;;;6.30;99.90;;;;;;5043884;28;20056;-72
2022/04/21 00:26:01;;;;;;;1.23;0.55;;;6.20;99.90;;;;;;5029526;28;20393;-72
2022/04/21 00:28:28;;;;;;;0.47;0.47;;;6.20;99.90;;;;;;5029143;28;20450;-72
2022/04/21 00:30:55;;;;;;;0.70;0.70;;;6.20;99.90;;;;;;5027077;28;20127;-72
2022/04/21 00:33:21;;;;;;;1.20;0.82;;;6.20;99.90;;;;;;5045449;28;20526;-72
2022/04/21 00:35:47;;;;;;;7.97;1.55;;;6.20;99.90;;;;;;5043954;28;20142;-72
2022/04/21 00:38:13;;;;;;;2.58;2.10;;;6.20;99.90;;;;;;5046295;28;20465;-72
2022/04/21 00:40:39;;;;;;;4.43;1.55;;;6.20;99.90;;;;;;5043955;28;20061;-72
2022/04/21 00:43:05;;;;;;;4.25;2.72;;;6.30;99.90;;;;;;5046765;28;20045;-72
2022/04/21 00:45:32;;;;;;;1.50;1.40;;;6.40;99.90;;;;;;5044688;28;20060;-72
2022/04/21 00:47:58;;;;;;;2.05;1.95;;;6.50;99.90;;;;;;5046335;28;20048;-72
2022/04/21 00:50:44;;;;;;;2.85;2.55;;;6.50;99.90;;;;;;5029378;28;20127;-72
2022/04/21 00:53:10;;;;;;;3.83;2.22;;;6.60;99.90;;;;;;5017298;28;20053;-72
2022/04/21 00:55:38;;;;;;;2.95;2.38;;;6.60;99.90;;;;;;5028699;28;20194;-72
2022/04/21 00:58:05;;;;;;;11.30;4.20;;;6.70;99.90;;;;;;5042931;28;20128;-72
2022/04/21 01:00:31;;;;;;;1.55;1.45;;;6.80;99.90;;;;;;5045490;28;20055;-72
2022/04/21 01:02:57;;;;;;;0.85;0.85;;;6.80;99.90;;;;;;5045140;28;20041;-72
2022/04/21 01:05:29;;;;;;;0.60;0.60;;;6.90;99.90;;;;;;5045718;28;20522;-72
2022/04/21 01:07:57;;;;;;;0.55;0.55;;;6.80;99.90;;;;;;5044320;28;20463;-72
2022/04/21 01:10:24;;;;;;;1.15;1.15;;;6.70;99.90;;;;;;5044774;28;20052;-72
2022/04/21 01:12:50;;;;;;;2.05;1.50;;;6.70;99.90;;;;;;5044730;28;20128;-72
2022/04/21 01:15:16;;;;;;;0.82;0.82;;;6.70;99.90;;;;;;5042978;28;20401;-72
2022/04/21 01:17:41;;;;;;;0.50;0.50;;;6.70;99.90;;;;;;5023000;28;20044;-73
2022/04/21 01:20:09;;;;;;;0.40;0.40;;;6.60;99.90;;;;;;5038047;28;20123;-73
2022/04/21 01:22:35;;;;;;;0.70;0.70;;;6.50;99.90;;;;;;5045609;28;20052;-72
2022/04/21 01:25:01;;;;;;;0.80;0.80;;;6.50;99.90;;;;;;5044847;28;20115;-73
2022/04/21 01:27:31;;;;;;;0.50;0.50;;;6.40;99.90;;;;;;5044579;28;20037;-73
2022/04/21 01:29:56;;;;;;;0.63;0.63;;;6.30;99.90;;;;;;5045687;28;20049;-72
2022/04/21 01:32:22;;;;;;;0.50;0.50;;;6.30;99.90;;;;;;5044978;28;20051;-72
2022/04/21 01:34:48;;;;;;;1.38;1.38;;;6.20;99.90;;;;;;5044563;28;20052;-72
2022/04/21 01:42:42;;;;;;;0.80;0.80;;;6.10;99.90;;;;;;5048243;28;20079;-72
2022/04/21 01:45:08;;;;;;;1.08;1.08;;;6.10;99.90;;;;;;5049303;28;20060;-72
2022/04/21 01:47:33;;;;;;;4.18;1.50;;;6.10;99.90;;;;;;5048985;28;20037;-72
2022/04/21 01:49:59;;;;;;;0.80;0.80;;;6.00;99.90;;;;;;5047623;28;20051;-72
2022/04/21 01:52:25;;;;;;;0.95;0.95;;;6.00;99.90;;;;;;5049257;28;20041;-72
2022/04/21 01:54:50;;;;;;;0.80;0.80;;;6.00;99.90;;;;;;5031788;28;20132;-72
2022/04/21 01:57:20;;;;;;;0.90;0.90;;;5.90;99.90;;;;;;5048616;28;20048;-72
2022/04/21 01:59:46;;;;;;;2.70;2.38;;;5.90;99.90;;;;;;5047152;28;20544;-72
2022/04/21 02:02:12;;;;;;;0.93;0.93;;;5.70;99.90;;;;;;5048296;28;20040;-72
2022/04/21 02:04:37;;;;;;;1.48;1.38;;;5.70;99.90;;;;;;5032463;28;20049;-72
2022/04/21 02:07:04;;;;;;;1.60;1.50;;;5.60;99.90;;;;;;5031485;28;20034;-72
2022/04/21 02:09:29;;;;;;;0.70;0.70;;;5.60;99.90;;;;;;5047801;28;20114;-72
2022/04/21 02:11:55;;;;;;;0.63;0.63;;;5.50;99.90;;;;;;5029369;28;20493;-72
2022/04/21 02:14:21;;;;;;;1.95;1.83;;;5.60;99.90;;;;;;5049172;28;20080;-72
2022/04/21 02:16:46;;;;;;;0.77;0.77;;;5.50;99.90;;;;;;5048673;28;20044;-72
2022/04/21 02:19:12;;;;;;;1.65;1.55;;;5.60;99.90;;;;;;5048557;28;20036;-72
2022/04/21 02:21:37;;;;;;;1.52;1.27;;;5.50;99.90;;;;;;5047647;28;20135;-72
2022/04/21 02:24:03;;;;;;;1.13;1.13;;;5.50;99.90;;;;;;5045270;28;20050;-72
2022/04/21 02:26:29;;;;;;;0.93;0.93;;;5.60;99.90;;;;;;5032727;28;20034;-73
2022/04/21 02:28:55;;;;;;;7.20;4.90;;;5.60;99.90;;;;;;5049197;28;20479;-72
2022/04/21 02:31:20;;;;;;;6.82;4.00;;;5.60;99.90;;;;;;5047111;28;20053;-72
2022/04/21 02:33:46;;;;;;;3.42;3.17;;;5.60;99.90;;;;;;5063467;28;20041;-72
2022/04/21 02:36:12;;;;;;;7.95;3.63;;;5.80;99.90;;;;;;5040430;28;20048;-72
2022/04/21 02:38:37;;;;;;;9.27;5.65;;;5.90;99.90;;;;;;5044301;28;20060;-72
2022/04/21 02:41:04;;;;;;;7.18;4.72;;;5.90;99.90;;;;;;5068825;28;20113;-72
2022/04/21 02:43:29;;;;;;;4.85;3.10;;;6.10;99.90;;;;;;5067037;28;20053;-73
2022/04/21 02:45:55;;;;;;;6.65;4.85;;;6.30;99.90;;;;;;5049419;28;20409;-72
2022/04/21 02:48:21;;;;;;;21.17;3.83;;;6.40;99.90;;;;;;5052474;28;20071;-72
2022/04/21 02:50:49;;;;;;;1.33;1.27;;;6.50;99.90;;;;;;5051186;28;20072;-72
2022/04/21 02:53:16;;;;;;;4.38;2.53;;;6.50;99.90;;;;;;5048823;28;20584;-72
2022/04/21 02:58:26;;;;;;;3.42;2.13;;;6.40;99.90;;;;;;5048998;28;20048;-72
2022/04/21 03:00:52;;;;;;;4.03;2.55;;;6.30;99.90;;;;;;5031471;28;20502;-72
2022/04/21 03:03:18;;;;;;;2.05;1.95;;;6.30;99.90;;;;;;5049298;28;20048;-72
2022/04/21 03:05:44;;;;;;;1.73;1.65;;;6.20;99.90;;;;;;5043466;28;20040;-72
2022/04/21 03:08:09;;;;;;;6.97;3.95;;;6.20;99.90;;;;;;5049999;28;20067;-72
2022/04/21 03:10:35;;;;;;;2.53;2.33;;;6.20;99.90;;;;;;5066278;28;20048;-71
2022/04/21 03:13:00;;;;;;;4.00;3.63;;;6.30;99.90;;;;;;5051124;28;20045;-72
2022/04/21 03:15:26;;;;;;;7.95;5.68;;;6.30;99.90;;;;;;5048455;28;20036;-71
2022/04/21 03:17:52;;;;;;;4.22;3.40;;;6.40;99.90;;;;;;5050188;28;20119;-72
2022/04/21 03:25:45;;;;;;;2.63;2.10;;;6.50;99.90;;;;;;5048065;28;20044;-72
2022/04/21 03:28:12;;;;;;;1.90;1.80;;;6.50;99.90;;;;;;5050304;28;20480;-72
2022/04/21 03:30:38;;;;;;;3.88;2.92;;;6.40;99.90;;;;;;5049535;28;20420;-72
2022/04/21 03:33:04;;;;;;;2.78;2.45;;;6.50;99.90;;;;;;5033166;28;20036;-71
2022/04/21 03:35:29;;;;;;;3.15;2.92;;;6.50;99.90;;;;;;5033843;28;20527;-72
2022/04/21 03:37:55;;;;;;;1.48;1.42;;;6.40;99.90;;;;;;5050227;28;20044;-71
2022/04/21 03:40:21;;;;;;;4.20;3.63;;;6.40;99.90;;;;;;5032603;28;20056;-72
2022/04/21 03:42:47;;;;;;;5.07;3.67;;;6.40;99.90;;;;;;5066169;28;20049;-72
2022/04/21 03:45:13;;;;;;;12.73;2.88;;;6.40;99.90;;;;;;5030267;28;20094;-71
2022/04/21 03:47:39;;;;;;;3.38;3.17;;;6.40;99.90;;;;;;5047078;28;20048;-72
2022/04/21 03:50:05;;;;;;;4.00;3.63;;;6.40;99.90;;;;;;5049358;28;20036;-71
2022/04/21 03:52:31;;;;;;;5.18;4.50;;;6.40;99.90;;;;;;5048035;28;20048;-72
2022/04/21 03:54:57;;;;;;;5.03;2.70;;;6.30;99.90;;;;;;5049879;28;20043;-72
2022/04/21 03:57:25;;;;;;;4.25;3.47;;;6.40;99.90;;;;;;5016701;28;20472;-71
2022/04/21 03:59:51;;;;;;;4.32;3.70;;;6.30;99.90;;;;;;5043766;28;20461;-72
2022/04/21 04:02:16;;;;;;;6.45;3.28;;;6.30;99.90;;;;;;5050004;28;20082;-72
2022/04/21 04:04:42;;;;;;;8.85;3.47;;;6.30;99.90;;;;;;5032388;28;20070;-72
2022/04/21 04:12:40;;;;;;;3.63;3.33;;;6.10;99.90;;;;;;5053437;28;20440;-72
2022/04/21 04:15:07;;;;;;;6.05;3.95;;;6.00;99.90;;;;;;5047554;28;20127;-72
2022/04/21 04:17:33;;;;;;;4.47;3.22;;;6.00;99.90;;;;;;5032793;28;20062;-71
2022/04/21 04:19:59;;;;;;;6.05;4.43;;;6.00;99.90;;;;;;5048731;28;20048;-72
2022/04/21 04:22:25;;;;;;;3.25;3.00;;;6.10;99.90;;;;;;5029869;28;20049;-72
2022/04/21 04:24:53;;;;;;;3.30;2.08;;;6.00;99.90;;;;;;5041310;28;20052;-72
2022/04/21 04:27:23;;;;;;;4.97;3.03;;;6.10;99.90;;;;;;5064422;28;20052;-71
2022/04/21 04:29:48;;;;;;;4.65;4.18;;;6.10;99.90;;;;;;5047758;28;20094;-71
2022/04/21 04:32:15;;;;;;;1.85;1.65;;;6.00;99.90;;;;;;5048875;28;20370;-72
2022/04/21 04:34:41;;;;;;;2.80;2.60;;;6.00;99.90;;;;;;5048846;28;20166;-72
2022/04/21 04:37:07;;;;;;;3.38;3.08;;;6.00;99.90;;;;;;5048074;28;20044;-72
2022/04/21 04:39:32;;;;;;;3.17;2.90;;;6.00;99.90;;;;;;5050321;28;20614;-72
2022/04/21 04:42:16;;;;;;;6.82;2.33;;;6.00;99.90;;;;;;5049491;28;20123;-72
2022/04/21 04:44:42;;;;;;;2.95;2.75;;;5.90;99.90;;;;;;5050084;28;20036;-72
2022/04/21 04:47:07;;;;;;;4.68;3.33;;;6.00;99.90;;;;;;5048360;28;20024;-71
2022/04/21 04:49:33;;;;;;;7.50;3.78;;;6.00;99.90;;;;;;5049575;28;20079;-72
2022/04/21 04:51:58;;;;;;;4.40;3.42;;;6.10;99.90;;;;;;5049964;28;20174;-71
2022/04/21 04:54:25;;;;;;;2.20;2.10;;;6.20;99.90;;;;;;5018450;28;20041;-72
2022/04/21 04:56:51;;;;;;;5.57;3.42;;;6.30;99.90;;;;;;5027062;28;20507;-71
2022/04/21 04:59:17;;;;;;;3.50;3.15;;;6.30;99.90;;;;;;5049085;28;20123;-71
2022/04/21 05:01:45;;;;;;;1.45;1.40;;;6.40;99.90;;;;;;5032712;28;20049;-72
2022/04/21 05:04:15;;;;;;;3.03;2.70;;;6.40;99.90;;;;;;5047768;28;20052;-71
2022/04/21 05:06:55;;;;;;;5.03;3.58;;;6.40;99.90;;;;;;5049517;28;20044;-72
2022/04/21 05:09:22;;;;;;;4.60;3.55;;;6.50;99.90;;;;;;5049071;28;20040;-72
2022/04/21 05:11:54;;;;;;;5.63;3.78;;;6.60;99.90;;;;;;5047835;28;20426;-71
2022/04/21 05:14:20;;;;;;;1.88;1.77;;;6.60;99.90;;;;;;5048617;28;20044;-72
2022/04/21 05:16:46;;;;;;;3.22;3.03;;;6.80;99.90;;;;;;5051716;28;20040;-72
2022/04/21 05:19:17;;;;;;;1.40;1.40;;;6.90;99.90;;;;;;5035007;28;20049;-72
2022/04/21 05:21:45;;;;;;;3.78;3.47;;;6.90;99.90;;;;;;5051492;28;20053;-72
2022/04/21 05:24:11;;;;;;;2.45;2.10;;;7.10;99.90;;;;;;5053346;28;20033;-71
2022/04/21 05:26:38;;;;;;;7.72;5.05;;;7.30;99.90;;;;;;5051718;28;20089;-71
2022/04/21 05:32:00;;;;;;;1.55;1.45;;;7.90;99.90;;;;;;5051609;28;20044;-72
2022/04/21 05:34:27;;;;;;;5.45;3.97;;;8.70;99.90;;;;;;5046925;28;20456;-72
2022/04/21 05:36:53;;;;;;;5.57;3.33;;;9.50;99.90;;;;;;5052403;28;20051;-72
2022/04/21 05:39:20;;;;;;;4.60;2.08;;;9.90;99.90;;;;;;5048393;28;20049;-72
2022/04/21 05:41:47;;;;;;;2.70;2.50;;;9.90;99.90;;;;;;5031678;28;20079;-71
2022/04/21 05:44:13;;;;;;;5.43;3.70;;;9.70;99.90;;;;;;5050001;28;20472;-71
2022/04/21 05:46:39;;;;;;;5.22;3.60;;;9.30;99.90;;;;;;5048127;28;20041;-71
2022/04/21 05:49:05;;;;;;;1.58;1.50;;;9.10;99.90;;;;;;5048259;28;20051;-73
2022/04/21 05:51:31;;;;;;;3.15;2.30;;;8.90;99.90;;;;;;5048817;28;20041;-72
2022/04/21 05:53:58;;;;;;;2.45;2.25;;;8.80;99.90;;;;;;5049057;28;20052;-72
2022/04/21 05:56:24;;;;;;;1.50;1.48;;;8.70;99.90;;;;;;5031029;28;20629;-72
2022/04/21 05:58:50;;;;;;;5.78;4.45;;;8.70;99.90;;;;;;5049181;28;20044;-72
2022/04/21 06:01:16;;;;;;;5.93;3.80;;;8.70;99.90;;;;;;5048097;28;20041;-71
2022/04/21 06:03:41;;;;;;;7.22;3.38;;;8.70;99.90;;;;;;5048195;28;20049;-72
2022/04/21 06:06:09;;;;;;;8.10;5.40;;;8.80;99.90;;;;;;5048024;28;20389;-71
2022/04/21 06:08:38;;;;;;;2.65;2.45;;;8.80;99.90;;;;;;5048315;28;20465;-72
2022/04/21 06:11:04;;;;;;;0.73;0.73;;;9.00;99.90;;;;;;5048924;28;20044;-72
2022/04/21 06:13:30;;;;;;;3.78;2.50;;;9.20;99.90;;;;;;5031458;28;20045;-72
2022/04/21 06:15:57;;;;;;;1.38;1.38;;;9.50;99.90;;;;;;5031699;28;20045;-73
2022/04/21 06:18:23;;;;;;;4.05;3.65;;;10.20;99.90;;;;;;5046859;28;20521;-72
2022/04/21 06:20:51;;;;;;;4.53;3.58;;;11.00;99.90;;;;;;5030218;28;20394;-72
2022/04/21 06:23:17;;;;;;;5.30;3.42;;;11.30;99.90;;;;;;5046546;28;20041;-72
2022/04/21 06:25:43;;;;;;;8.50;3.33;;;11.40;99.90;;;;;;5047887;28;20048;-72
2022/04/21 06:28:10;;;;;;;3.22;2.53;;;11.30;99.90;;;;;;5042509;28;20174;-72
2022/04/21 06:30:36;;;;;;;4.93;2.80;;;11.40;99.90;;;;;;5048757;28;20037;-72
2022/04/21 06:33:02;;;;;;;1.92;1.75;;;11.40;99.90;;;;;;5048962;28;20520;-72
2022/04/21 06:35:28;;;;;;;9.55;3.05;;;11.50;99.90;;;;;;5028639;28;20041;-72
2022/04/21 06:37:55;;;;;;;2.97;2.13;;;11.60;99.90;;;;;;5025381;28;20064;-73
2022/04/21 06:40:21;;;;;;;5.53;3.22;;;11.60;99.90;;;;;;5046557;28;20060;-72
2022/04/21 06:42:47;;;;;;;4.22;2.92;;;11.60;99.90;;;;;;5048664;28;20041;-72
2022/04/21 06:48:04;;;;;;;3.78;2.35;;;12.10;99.90;;;;;;5038827;28;20080;-72
2022/04/21 06:50:34;;;;;;;2.40;2.20;;;12.80;99.90;;;;;;5048117;28;20045;-72
2022/04/21 06:53:05;;;;;;;4.38;2.28;;;13.30;99.90;;;;;;5030844;28;20044;-72
2022/04/21 06:55:31;;;;;;;3.38;2.33;;;13.30;99.90;;;;;;5042321;28;20040;-72
2022/04/21 06:57:57;;;;;;;2.60;2.00;;;12.80;99.90;;;;;;5065922;28;20032;-72
2022/04/21 07:00:25;;;;;;;2.00;1.77;;;12.40;99.90;;;;;;5049019;28;20409;-73
2022/04/21 07:02:52;;;;;;;1.63;1.30;;;12.50;99.90;;;;;;5063709;28;20045;-72
2022/04/21 07:05:18;;;;;;;2.35;1.95;;;12.50;99.90;;;;;;5049088;28;20331;-72
2022/04/21 07:07:44;;;;;;;1.35;1.08;;;12.20;99.90;;;;;;5031932;28;20041;-73
2022/04/21 07:10:11;;;;;;;4.75;2.88;;;12.00;99.90;;;;;;5064003;28;20082;-72
2022/04/21 07:12:37;;;;;;;2.08;1.92;;;11.90;99.90;;;;;;5027402;28;20450;-72
2022/04/21 07:15:06;;;;;;;3.40;2.60;;;11.90;99.90;;;;;;5029115;28;20402;-72
2022/04/21 07:17:32;;;;;;;2.20;1.80;;;12.00;99.90;;;;;;5045430;28;20049;-72
2022/04/21 07:19:59;;;;;;;4.40;2.22;;;11.90;99.90;;;;;;5045707;28;20600;-72
2022/04/21 07:22:25;;;;;;;1.00;0.95;;;11.90;99.10;;;;;;5042723;28;20448;-72
2022/04/21 07:24:54;;;;;;;5.13;1.85;;;11.90;98.80;;;;;;5031978;28;20056;-72
2022/04/21 07:27:21;;;;;;;5.07;2.05;;;11.90;99.00;;;;;;5032398;28;20382;-72
2022/04/21 07:29:46;;;;;;;2.33;1.60;;;11.90;99.00;;;;;;5046845;28;20401;-72
2022/04/21 07:32:12;;;;;;;1.40;1.30;;;12.00;98.20;;;;;;5048261;28;20098;-72
2022/04/21 07:34:38;;;;;;;1.40;1.05;;;12.00;99.30;;;;;;5031787;28;20044;-72
2022/04/21 07:37:05;;;;;;;1.52;1.33;;;12.10;97.90;;;;;;5030946;28;20477;-72
2022/04/21 07:39:31;;;;;;;1.75;1.00;;;12.20;98.40;;;;;;5046999;28;20071;-72
2022/04/21 07:41:58;;;;;;;2.38;1.40;;;12.30;98.10;;;;;;5030372;28;20382;-72
2022/04/21 07:44:25;;;;;;;0.85;0.85;;;12.30;97.00;;;;;;5047967;28;20041;-72
2022/04/21 07:46:51;;;;;;;1.35;1.20;;;12.40;97.20;;;;;;5047873;28;20066;-72
2022/04/21 07:54:45;;;;;;;1.20;1.02;;;12.40;96.00;;;;;;5046910;28;20053;-72
2022/04/21 07:57:11;;;;;;;1.38;1.08;;;12.50;96.70;;;;;;5048276;28;20052;-72
2022/04/21 07:59:36;;;;;;;1.27;1.20;;;12.60;95.90;;;;;;5046121;28;20044;-72
2022/04/21 08:02:03;;;;;;;4.47;1.10;;;12.70;94.40;;;;;;5028423;28;20087;-72
2022/04/21 08:04:30;;;;;;;2.53;1.88;;;12.80;94.20;;;;;;5047670;28;20041;-72
2022/04/21 08:06:57;;;;;;;2.03;1.20;;;12.80;91.90;;;;;;5031260;28;20040;-72
2022/04/21 08:09:23;;;;;;;0.60;0.50;;;12.80;91.40;;;;;;5047182;28;20419;-72
2022/04/21 08:11:48;;;;;;;2.25;1.73;;;12.80;91.80;;;;;;5047790;28;20122;-72
2022/04/21 08:14:16;;;;;;;2.30;1.58;;;12.90;92.20;;;;;;5046046;28;20091;-72
2022/04/21 08:16:42;;;;;;;1.17;1.08;;;13.00;92.70;;;;;;5022459;28;20052;-71
2022/04/21 08:19:08;;;;;;;1.95;1.60;;;13.10;92.60;;;;;;5046457;28;20069;-72
2022/04/21 08:21:34;;;;;;;1.42;1.30;;;13.20;91.20;;;;;;5047526;28;20083;-71
2022/04/21 08:32:33;;;;;;;1.33;1.20;;;13.20;90.00;;;;;;5039793;28;20052;-72
2022/04/21 08:34:58;;;;;;;1.42;1.23;;;13.30;80.40;;;;;;5034530;28;20399;-71
2022/04/21 08:37:24;;;;;;;1.23;1.13;;;13.40;79.60;;;;;;5036955;28;20045;-72
2022/04/21 08:39:49;;;;;;;1.50;1.38;;;13.50;81.20;;;;;;5043491;28;20064;-72
2022/04/21 08:42:15;;;;;;;1.92;1.73;;;13.80;80.80;;;;;;5032028;28;20342;-73
2022/04/21 08:44:44;;;;;;;3.53;2.20;;;14.00;77.30;;;;;;5019350;28;20044;-73
2022/04/21 08:47:12;;;;;;;1.58;1.48;;;14.60;76.30;;;;;;5035649;28;20436;-72
2022/04/21 08:49:39;;;;;;;0.65;0.65;;;15.10;74.20;;;;;;5031047;28;20068;-71
2022/04/21 08:52:06;;;;;;;1.58;1.48;;;15.60;72.50;;;;;;5039071;28;20095;-72
2022/04/21 08:54:33;;;;;;;4.72;1.75;;;15.90;69.60;;;;;;5036362;28;20052;-72
2022/04/21 08:56:59;;;;;;;1.38;1.02;;;16.30;70.30;;;;;;5036151;28;20048;-72
2022/04/21 08:59:25;;;;;;;1.73;1.38;;;16.70;68.60;;;;;;5024079;28;20396;-72
2022/04/21 09:01:51;;;;;;;1.25;1.15;;;17.00;67.20;;;;;;5036848;28;20040;-72
2022/04/21 09:04:16;;;;;;;0.30;0.30;;;17.10;66.40;;;;;;5035661;28;20038;-72
2022/04/21 09:06:42;;;;;;;1.63;1.42;;;17.30;66.70;;;;;;5035373;28;20037;-73
2022/04/21 09:09:16;;;;;;;2.60;1.40;;;17.60;65.00;;;;;;5038326;28;20123;-73
2022/04/21 09:11:45;;;;;;;2.13;1.60;;;17.50;61.20;;;;;;5034741;28;20164;-72
2022/04/21 09:14:16;;;;;;;1.25;1.15;;;17.30;62.00;;;;;;5040011;28;21326;-72
2022/04/21 09:16:42;;;;;;;1.17;1.08;;;17.10;61.60;;;;;;5036663;28;20060;-72
2022/04/21 09:19:07;;;;;;;3.40;2.45;;;17.10;62.40;;;;;;5035258;28;20049;-73
2022/04/21 09:21:37;;;;;;;2.72;2.10;;;17.30;61.40;;;;;;5035596;28;20041;-72
2022/04/21 09:24:19;;;;;;;1.17;1.13;;;17.20;61.50;;;;;;5050646;28;20561;-72
2022/04/21 09:26:45;;;;;;;3.00;1.33;;;17.20;63.10;;;;;;5035526;28;20049;-72
2022/04/21 09:29:21;;;;;;;2.50;1.30;;;17.50;64.00;;;;;;5033707;28;20052;-72
2022/04/21 09:31:47;;;;;;;2.65;1.80;;;17.60;62.20;;;;;;5030673;28;20040;-72
2022/04/21 09:34:13;;;;;;;4.28;1.73;;;17.70;64.00;;;;;;5033696;28;20045;-72
2022/04/21 09:36:39;;;;;;;3.70;1.40;;;17.90;63.50;;;;;;5013794;28;20112;-72
2022/04/21 09:39:05;;;;;;;3.15;2.35;;;18.00;62.80;;;;;;5015790;28;20061;-73
2022/04/21 09:41:30;;;;;;;1.30;1.20;;;18.20;62.50;;;;;;5033791;28;20190;-73
2022/04/21 09:46:56;;;;;;;4.20;1.88;;;18.40;61.20;;;;;;5035508;28;20129;-72
2022/04/21 09:49:43;;;;;;;2.85;1.60;;;18.20;60.40;;;;;;5038415;28;20045;-72
2022/04/21 09:52:10;;;;;;;2.45;1.75;;;18.00;60.50;;;;;;5036753;28;20456;-73
2022/04/21 09:54:36;;;;;;;3.72;2.47;;;17.90;59.90;;;;;;5033574;28;20686;-72
2022/04/21 09:57:03;;;;;;;2.20;2.00;;;17.80;60.10;;;;;;5035108;28;20929;-73
2022/04/21 09:59:29;;;;;;;3.85;2.42;;;17.70;59.10;;;;;;5038468;28;20047;-72
2022/04/21 10:01:55;;;;;;;2.78;2.08;;;17.70;61.40;;;;;;5032227;28;20144;-72
2022/04/21 10:04:22;;;;;;;0.88;0.85;;;17.70;60.00;;;;;;5019360;28;20095;-72
2022/04/21 10:06:48;;;;;;;2.70;2.00;;;17.60;61.00;;;;;;5041234;28;20049;-72
2022/04/21 10:09:18;;;;;;;2.83;1.77;;;17.50;60.70;;;;;;5037215;28;20044;-73
2022/04/21 10:11:44;;;;;;;4.78;1.63;;;17.50;61.60;;;;;;5025938;28;20472;-72
2022/04/21 10:14:17;;;;;;;5.15;2.42;;;17.60;61.80;;;;;;5033997;28;20040;-72
2022/04/21 10:16:43;;;;;;;2.58;1.80;;;17.50;60.50;;;;;;5038108;28;20607;-72
2022/04/21 10:19:11;;;;;;;1.27;1.17;;;17.50;61.70;;;;;;5031129;28;20451;-72
2022/04/21 10:21:42;;;;;;;2.53;1.70;;;17.50;61.10;;;;;;5033995;28;20044;-72
2022/04/21 10:24:08;;;;;;;1.67;1.15;;;17.50;62.50;;;;;;5018162;28;20508;-72
2022/04/21 10:26:41;;;;;;;2.03;1.83;;;17.50;62.50;;;;;;5034853;28;20405;-72
2022/04/21 10:29:11;;;;;;;;;;;17.50;59.80;;;;;;5035155;28;20094;-72
2022/04/21 10:31:59;;;;;;;2.70;1.83;;;17.40;61.90;;;;;;5020789;28;19921;-72
2022/04/21 10:34:43;;;;;;;1.60;1.50;;;17.60;62.30;;;;;;5050627;28;20041;-73
2022/04/21 10:37:22;;;;;;;2.97;1.70;;;17.70;62.00;;;;;;5036286;28;20049;-72
2022/04/21 10:40:07;;;;;;;1.75;1.42;;;17.80;61.80;;;;;;5036405;28;20057;-72
2022/04/21 10:42:52;;;;;;;3.53;2.47;;;17.80;59.80;;;;;;5033445;28;20044;-73
2022/04/21 10:45:27;;;;;;;2.03;1.70;;;17.60;58.80;;;;;;5033430;28;20179;-72
2022/04/21 10:48:03;;;;;;;4.25;1.80;;;17.50;61.60;;;;;;5015822;28;20041;-72
2022/04/21 10:50:34;;;;;;;1.83;1.50;;;17.60;62.20;;;;;;5038284;28;20048;-72
2022/04/21 10:58:34;;;;;;;1.80;1.60;;;17.40;59.00;;;;;;5035659;28;20052;-72
2022/04/21 11:01:28;;;;;;;6.00;1.77;;;17.40;59.30;;;;;;5026983;28;20049;-72
2022/04/21 11:04:07;;;;;;;3.33;2.00;;;17.50;60.70;;;;;;5040854;28;20063;-72
2022/04/21 11:06:44;;;;;;;2.00;1.60;;;17.70;58.00;;;;;;5040611;28;20249;-72
2022/04/21 11:09:37;;;;;;;0.93;0.93;;;17.50;58.50;;;;;;5045284;28;20401;-72
2022/04/21 11:12:05;;;;;;;1.30;1.20;;;17.40;58.50;;;;;;5044561;28;20469;-72
2022/04/21 11:14:33;;;;;;;9.95;2.08;;;17.40;59.10;;;;;;5045704;28;20123;-72
2022/04/21 11:17:01;;;;;;;2.65;1.92;;;17.50;58.60;;;;;;5039284;28;20112;-73
2022/04/21 11:19:29;;;;;;;5.72;2.40;;;17.50;59.00;;;;;;5046634;28;20404;-72
2022/04/21 11:22:14;;;;;;;3.25;1.52;;;17.60;58.60;;;;;;5043770;28;20103;-72
2022/04/21 11:24:55;;;;;;;7.45;1.33;;;17.50;59.60;;;;;;5040976;28;20572;-72
2022/04/21 11:27:22;;;;;;;3.45;2.05;;;17.70;60.00;;;;;;5034938;28;20037;-72
2022/04/21 11:29:48;;;;;;;1.85;1.10;;;18.00;59.70;;;;;;5031982;28;20385;-72
2022/04/21 11:32:17;;;;;;;2.08;1.50;;;18.20;58.60;;;;;;5045577;28;20430;-72
2022/04/21 11:35:05;;;;;;;2.75;1.77;;;18.20;57.60;;;;;;5044315;28;20408;-72
2022/04/21 11:37:57;;;;;;;2.83;1.35;;;18.10;56.10;;;;;;5031327;28;20091;-72
2022/04/21 11:40:28;;;;;;;2.22;1.42;;;18.00;58.50;;;;;;5028242;28;20466;-72
2022/04/21 11:42:56;;;;;;;3.60;1.65;;;18.00;57.80;;;;;;5035898;28;20037;-72
2022/04/21 11:45:27;;;;;;;1.15;1.05;;;17.90;56.90;;;;;;5043908;28;20519;-72
2022/04/21 11:47:53;;;;;;;4.72;2.00;;;17.80;57.80;;;;;;5045231;28;20037;-72
2022/04/21 11:50:20;;;;;;;1.42;0.85;;;17.80;59.10;;;;;;5041331;28;20041;-72
2022/04/21 11:52:47;;;;;;;1.20;1.10;;;17.80;58.60;;;;;;5027138;28;20044;-72
2022/04/21 11:55:16;;;;;;;14.32;2.40;;;17.90;60.30;;;;;;5046508;28;20099;-72
2022/04/21 11:57:42;;;;;;;4.63;1.90;;;18.10;57.40;;;;;;5044563;28;20052;-72
2022/04/21 12:00:08;;;;;;;1.23;1.08;;;18.00;56.60;;;;;;5044886;28;20036;-72
2022/04/21 12:08:06;;;;;;;2.70;2.10;;;18.10;57.80;;;;;;5045040;28;20037;-73
2022/04/21 12:10:33;;;;;;;2.85;1.92;;;18.10;57.90;;;;;;5046511;28;20062;-72
2022/04/21 12:12:58;;;;;;;3.17;2.20;;;18.10;58.60;;;;;;5062475;28;20041;-72
2022/04/21 12:15:28;;;;;;;1.48;0.93;;;18.10;57.70;;;;;;5047078;28;20044;-72
2022/04/21 12:17:59;;;;;;;2.42;1.52;;;18.30;59.20;;;;;;5063062;28;20073;-72
2022/04/21 12:20:25;;;;;;;2.47;2.20;;;18.50;58.70;;;;;;5046574;28;20566;-72
2022/04/21 12:22:51;;;;;;;1.75;1.02;;;18.60;56.80;;;;;;5027882;28;20048;-72
2022/04/21 12:25:16;;;;;;;1.63;1.40;;;18.50;57.80;;;;;;5043794;28;20044;-72
2022/04/21 12:27:44;;;;;;;2.78;2.08;;;18.60;57.30;;;;;;5046534;28;20043;-72
2022/04/21 12:30:11;;;;;;;2.15;1.23;;;18.60;55.90;;;;;;5045623;28;20049;-72
2022/04/21 12:32:46;;;;;;;0.63;0.63;;;18.60;56.00;;;;;;5061612;28;20496;-72
2022/04/21 12:35:13;;;;;;;1.92;1.33;;;18.70;58.60;;;;;;5031121;28;20083;-72
2022/04/21 12:37:44;;;;;;;2.17;1.48;;;18.90;55.40;;;;;;5027715;28;20041;-72
2022/04/21 12:40:12;;;;;;;3.17;1.90;;;18.90;55.50;;;;;;5045433;28;20132;-72
2022/04/21 12:42:41;;;;;;;2.00;1.65;;;18.70;54.60;;;;;;5026766;28;20048;-72
2022/04/21 12:45:08;;;;;;;3.72;2.30;;;18.40;55.10;;;;;;5040861;28;20033;-72
2022/04/21 12:47:48;;;;;;;3.30;1.25;;;18.20;56.90;;;;;;5042715;28;20067;-72
2022/04/21 12:50:18;;;;;;;1.92;1.73;;;18.10;56.50;;;;;;5026807;28;20044;-72
2022/04/21 12:53:02;;;;;;;1.98;1.77;;;18.10;56.80;;;;;;5029271;28;20060;-72
2022/04/21 12:55:28;;;;;;;3.33;2.35;;;18.20;57.90;;;;;;5044116;28;20045;-72
2022/04/21 12:58:11;;;;;;;1.50;1.13;;;18.30;56.60;;;;;;5045011;28;20528;-72
2022/04/21 13:00:40;;;;;;;2.08;1.38;;;18.30;58.80;;;;;;5029533;28;20663;-72
2022/04/21 13:03:06;;;;;;;1.98;1.48;;;18.40;57.90;;;;;;5043262;28;20045;-72
2022/04/21 13:05:33;;;;;;;3.00;1.55;;;18.50;57.90;;;;;;5043252;28;20430;-71
2022/04/21 13:07:59;;;;;;;1.85;1.25;;;18.50;57.00;;;;;;5043221;28;20033;-72
2022/04/21 13:10:26;;;;;;;1.33;1.23;;;18.40;56.70;;;;;;5044457;28;20064;-72
2022/04/21 13:12:52;;;;;;;2.90;2.00;;;18.20;58.90;;;;;;5031539;28;20699;-72
2022/04/21 13:15:17;;;;;;;1.02;1.00;;;18.30;58.00;;;;;;5032973;28;20032;-72
2022/04/21 13:17:43;;;;;;;1.77;1.67;;;18.30;60.00;;;;;;5044079;28;20132;-71
2022/04/21 13:20:10;;;;;;;0.43;0.43;;;18.30;59.80;;;;;;5025783;28;20080;-72
2022/04/21 13:22:36;;;;;;;6.55;1.98;;;18.20;59.30;;;;;;5026653;28;20041;-72
2022/04/21 13:25:03;;;;;;;1.92;1.73;;;18.10;59.60;;;;;;5045763;28;20135;-71
2022/04/21 13:27:29;;;;;;;0.80;0.80;;;18.00;60.20;;;;;;5046023;28;20468;-72
2022/04/21 13:29:55;;;;;;;0.50;0.50;;;18.10;60.60;;;;;;5044745;28;20044;-72
2022/04/21 13:35:06;;;;;;;1.83;1.35;;;18.20;61.20;;;;;;5046489;28;20080;-72
2022/04/21 13:37:31;;;;;;;1.45;1.20;;;18.10;62.40;;;;;;5026155;28;20512;-72
2022/04/21 13:39:58;;;;;;;2.70;2.15;;;18.00;61.10;;;;;;5049600;28;20467;-72
2022/04/21 13:42:23;;;;;;;4.35;2.50;;;17.60;61.00;;;;;;5032849;28;20459;-71
2022/04/21 13:44:51;;;;;;;4.05;2.13;;;17.40;62.30;;;;;;5031019;28;20049;-72
2022/04/21 13:47:16;;;;;;;1.10;1.02;;;17.30;63.10;;;;;;5042226;28;20393;-72
2022/04/21 13:49:43;;;;;;;0.90;0.90;;;17.30;65.40;;;;;;5050138;28;20116;-72